Timeline UpdatesTrip UpdatesNews PostsPvt Posts♥♥Travel TipsAdmin PostsConv PostsFollowed PostsChat RequestsBlog PostsPNR Posts

Disclaimer
Search
 
 
Wed Oct 22, 2014 08:46:55 ISTHomeTrainsΣChainsAtlasPNRForumGalleryNewsFAQTripsMembersLoginFeedback
No Recent News for this Train
Other Trains in the News **new
Latest...
..
Tue Aug 26, 2014 (08:50PM)
⇐ Return Journey: Train# 13133

13134/Varanasi - Sealdah (Upper India) Express

Time-Table HAS CHANGED.
Sep 03 2014 (5:12PM)
Change Departure Station:
Change Arrival Station:
Post a Train Travel TipPost a Train Travel Tip **new
Post a Comment/Question/Picture/VideoPost a Comment/Question/Picture/Video
Pantry/Catering
✕ NO Pantry Car
✕ NO Catering
RSA - Rake Sharing
13119/13120 Sealdah - Old Delhi Express
Rake/Coach Composition
LOCO-SLR-GS-GS-S4-S3-S2-S1-B1-GS-GS-GS-GS-GS-GS-SLR
Loco
BWN WDM-3A
News    PNR    Forum    Time-Table    Availability    Fare Chart    Map    Arr/Dep History    Trips    Gallery    ΣChains    X/O    Timeline    
Travel Time: 8h 20m    28 halts    Distance: 252 km    Avg Speed: 30 km/hr
Type: Mail/Express
Zone: ER/Eastern
Departs @ 08:40 (Avg 1m late)
Platform# 4
 MT TFS
Varanasi Junction/BSB 
Arrives @ 17:00
Platform# ???
 MT TFS
Hardas Bigha/HDE 

28 halts. 58 intermediate Stations between Varanasi Junction and Hardas Bigha

Show ALL intermediate Stations  Show Old Time-Table

#TrkCodeStation NameX/OArrivesAvgDepartsAvgHaltPFDay#KmSpeedElevZoneAddress
1/==/BSBVaranasi Junction (9)»  -08:40+1410.01882mNRVaranasi 221002, Uttar Pradesh
2/==/MGSMughal Sarai Junction (8)XO  09:35-209:50+115m--116.44283mECRDistt: Chandauli Pin 232101, Uttar Pradesh
3/==/SLDSakaldiha (2)X  10:16+210:18+72m--134.68781mECRState Highway 69, Uttar Pradesh
4/==/ZNAZamania (2)X  10:36+1410:38+182m--160.75177mECRGhazipur, Uttar Pradesh
5/==/DLNDildarnagar Junction (2)  10:52 10:54+1710:57 10:59+215m--174.17972mECRDildarnagar, Uttar Pradesh
6/==/BWHBhadaura (2)  11:10 11:05+2311:12 11:07+232m--182.06169mECRGhazipur, Uttar Pradesh
7/==/GMRGahmar (2)  11:22 11:15+2311:24 11:17+252m--190.26268mECRDistt: Ghazipur, Uttar Pradesh
8/==/CSAChausa (2)X  11:32 11:26+2711:34 11:28+282m--199.43068mECRState Highway 14, Bihar
9/==/BXRBuxar (3)X  11:49 11:50+1811:53 11:52+194 2m11110.39867mECRBuxar, Bihar
10/==/DUREDumraon (3)O  12:02+2812:04+282m--1126.76570mECRDumraon, Bihar
11/==/TWGTwining GanjX12:14 12:11+3012:16 12:13+302m--1134.37270mECRArrah Buxar Rd, Bihar
12/==/RPRRaghunathpur (4)  12:18 12:20+3212:20 12:22+352m--1142.68869mECRRaghunathpur, Bihar
13/==/BYNBanahi (2)X  12:28+3712:30+362m--1151.55167mECRBanahi, Bihar
14/==/BEABihiya (3)X  12:37+3912:39+412m--1157.47767mECRBehea, Bihar
15/==/KRSKarisath (2)X  12:48+4512:50+502m--1168.96065mECRKarisath, Bihar
16/==/ARAAra Junction (3)  13:00+4013:05+395m--1178.87463mECRDistt: Bhojpur Ph 06182-233411, Bihar
17/==/KUAKulharia (2)  13:13+1:0013:14+1:041m--1188.74361mECRChandi Sahar Rd, Bihar
18/==/KWRKoelwar (2)X  13:19-13:21-2m--1192.31865mECRNational Highway 30, Bihar
19/==/VHCHChakki Block CabinX  13:29+1:0213:31+1:012m--1194.85463mECRNational Highway 30, Bihar
20/==/BTABihta (2)X  13:38+5913:40+1:012m--1201.04262mECRDistt: Patna, Bihar
21/==/SDESadisopur (2)X  13:46-13:48-2m--1205.36164mECRSadisopur, Bihar
22/==/NEONeora (2)XO  13:55+1:0813:57+1:102m--1212.3761mECRNational Highway 98, Bihar
23/==/DNRDanapur (5)XO  14:50+2815:00+3310m--1218.45158mECRKhagaul, Bihar
24/==/PWSPhulwari Sharif (3)X  15:04+4215:06+522m--1221.8958mECRPatna, Bihar
25/==/PNBEPatna Junction (10)X  15:45+2015:55 16:05+2110 20m11227.82257mECRPatna 800001, Bihar
26/==/RJPBRajendra Nagar Bihar (4)  16:02 16:12+3416:04 16:14+342m--1230.45155mECRPatna 800001, Bihar
27/==/GZHGulzarbagh (3)X  16:09 16:19+3916:11 16:21+452m--1234.62055mECRPatna, Bihar
28/==/PNCPatna Saheb (3)X  16:20 16:30+4316:22 16:32+452m--1237.73559mECRPatna 800008, Bihar
29/==/FUTFatwa (6)  16:35 16:53+4716:37 16:55+1:082m--1249.92853mECRPatna, Bihar
30/==/HDEHardas Bigha•  16:42 17:00-16:44 17:02-2m--1252.27453mECRFatwah, Bihar
31/==/KOOKhusropur (2)  16:49 17:07+1:1216:51 17:09+1:122m--1258.35052mECRPatna, Bihar
32/==/KWOKarauta (2)X  17:16+1:0817:18+1:182m--1264.24552mECRKarauta, Bihar
33/==/BKPBakhtiyarpur Junction (5)X  17:30+1:2217:32+1:352m--1273.29051mECRPatna, Bihar
34/==/ATLAthmal Gola (2)  17:38+1:4117:40+1:412m--1282.26852mECRPatna, Bihar
35/==/BARHBarh (3)  17:48+1:4617:50+1:542m--1291.36149mECRBarh, Bihar
36/==/PHKPunarakh (2)XO  18:00+1:5318:02+1:532m--1301.51051mECRPunarakh, Bihar
37/==/MORMor (2)X  18:51+1:1218:53+1:142m--1309.73746mECRMor, Bihar
38/==/MKAMokama Junction (4)  19:05+1:1019:10+1:085m--1317.06348mECRPatna, Bihar
39/==/HTZHathidah Junction (2)X  19:18+1:1619:20+1:162m11325.44350mECRMusahari, Bihar
40/==/BRYABarhiya (3)X  19:33+1:1219:35+1:122m--1334.87047mECRBarahiya, Bihar
41/==/LKRLuckeesarai Junction (2)XO  19:48+1:1719:50+1:182m--1349.9152mECRLakhisarai, Bihar
42/==/KIULKiul Junction (5)  20:45+3620:55+3510m51351.25953mECRDist. Lakhisarai, Bihar
43!==!KJHKajra (2)  21:11+4221:13+432m--1366.94950mERLakhisarai District, Bihar
44|==|AHAAbhaipur (3)  21:22+4421:24+442m--1374.25552mERAbhaipur, Bihar
45|==|DRHDharhara (2)  21:35+4521:37+462m--1384.24755mERDharhara, Bihar
46|==|DRTPDasharathpur (2)21:44+4521:46+462m--1389.72748mERDharhara, Bihar
47|=-|JMPJamalpur Junction (4)  22:00+4222:10+4210m--1396.14759mERDist: Munger 06344-243101, Bihar
48|-=|RPURRatanpur (2)  22:18+4522:20+442m--1402.34246mERRatanpur Railway Station, Bihar
49|==|BUPBariarpur (3)X  22:27+4422:29+442m--1407.25442mERMunger, Bihar
50|==|SGGSultanGanj (3)  22:49+4422:51+452m--1425.14642mERSultanganj, Bihar
51|==|AKNAkbarnagar (3)  23:04+4223:06+422m--1435.24539mERTilakpur, Bihar
52|==|MPYMurarpur (2)  23:13-23:15-2m--1440.44238mERMau, Bihar
53|==|NATNathnagar (2)  23:22+3023:24+312m--1445.41848mERBhagalpur, Bihar
54|==!BGPBhagalpur Junction (6)X  23:40+2723:55+3115m21450.15649mERBhagalpur, Bihar
55!==!SBOSabaur (3)X  00:03+3900:05+392m--2457.65042mERSabour, Bihar
56!==!GGAGhoga (2)  00:20+4200:22+442m--2470.04942mERGhoga, Bihar
57!==!EKCEkchari (1)X  00:29+4600:31+472m12475.82037mERNational Highway 80, Bihar
58!==!CLGKahalgaon (2)  00:44+4100:46+432m12480.14444mERBhagalpur, Bihar
59!==!BKSLBikram Shila (2)  01:01 00:57+4201:03 00:58+442 1m--2488.22358mERBikram Shila, Bihar
60!==!SVRPShivanarayanpur (2)  01:12 01:07+4101:14 01:08+422 1m--2491.64447mERShivanarayanpur, Bihar
61!==!PPTPirpainti (2)  01:25 01:20+4101:27 01:21+422 1m--2500.55653mERBhagalpur, Bihar
62!==!MZCMirza Cheuki (3)  01:36 01:30+4401:38 01:32+442m32509.03538mERBihar, Bihar
63!==!SBGSahibganj Junction (3)  02:03 01:58+3402:13 02:08+4010m12524.05038mERSahibganj, Jharkhand
64!==!TLJTaljhari  02:44 02:42+4802:46 02:44+482m--2552.22538mERTaljhari, Jharkhand
65!==|TPHTinpahar Junction (3)  03:03 03:07+4303:05 03:08+452 1m22561.83145mERBamangawan, Jharkhand
66|==|BHWBarharwa Junction (3)  03:40+3103:45+325m22578.56536mERBarharwa, Jharkhand
67%==%KLPKotalpukur (3)X  03:58+4004:00+392m12592.56540mERKotalpukur, Jharkhand
68%==%PKRPakur (2)  04:11+3604:13+362m22604.54237mERDist:- Pakur, Jharkhand
69%==%RJGRajgram (3)X  04:28+4504:30+462m22615.15032mERDist - Birbhum, West Bengal
70%==%BSBRBanshlai Bridge (2)  04:38+4604:40+462m--2621.84335mERDist - Birbhum, West Bengal
71%==%MRRMurarai (3)  04:47+4704:49+502m22626.85736mERDist - Birbhum, West Bengal
72%==%CTRChatra (3)X  04:57+5204:59+522m22634.44742mERDist - Birbhum, West Bengal
73%==%NHTNalhati Junction (4)  05:10+4905:12+502m22643.02348mERDist - Birbhum, West Bengal
74%==%RPHRampurhat (3)X  05:48+3506:03+3015m12657.16841mERDIST - Birbhum, West Bengal
75%==%MLVMallarpur (3)  06:14+2806:16+292m--2669.54946mERDist - Birbhum, West Bengal
76%==%SNTSainthia Junction (4)X  06:35+2806:37+292m42685.18058mERDist - Birbhum, West Bengal
77%==%AMPAhmadpur Junction (3)  06:47+3206:49+312m22698.36546mERDist - Birbhum, West Bengal
78%==%PNEPrantik (3)  07:03+2407:05+242m22713.63248mERDist - Birbhum, West Bengal
79%==%BHPBolpur Shantiniketan (3)  07:13+2807:18+265m22717.87159mERDist - Birbhum, West Bengal
80%==%GKHGuskara (2)X  07:34+2807:36+282m12736.73541mERDist - Bardhaman, West Bengal
81/==/BWNBarddhaman Junction (8)XO  08:32+1508:56+924m--2769.67034mERDist - Barddhaman, West Bengal
82/==/DAKEDakhineswar (2)  10:12-10:14-2m22858.22310mERDist - 24 paraganas ( North ), West Bengal
83/==/BNXRBidhan Nagar Road (4)  10:38+510:40+52m42867.6138mERKolkata, West Bengal
84/==/SDAHKolkata Sealdah (20)  10:55+11-92870.9-8mERPh : 033-23503535 (For North: APC Roy Road) Kolkata 700014, West Bengal
Scroll to Top
Scroll to Bottom